createdAt,value
2022-10-20T00:04:29.624Z,4.85
2022-10-20T00:09:34.480Z,5.85
2022-10-20T00:14:36.393Z,5.40
2022-10-20T00:19:38.339Z,5.40
2022-10-20T00:24:40.411Z,4.53
2022-10-20T00:29:42.391Z,4.70
2022-10-20T00:34:44.256Z,9.10
2022-10-20T00:39:46.103Z,6.80
2022-10-20T00:44:59.839Z,5.93
2022-10-20T00:50:18.562Z,8.63
2022-10-20T00:55:25.970Z,5.78
2022-10-20T01:00:29.200Z,7.00
2022-10-20T01:05:31.048Z,7.63
2022-10-20T01:10:42.027Z,9.15
2022-10-20T01:16:09.475Z,6.63
2022-10-20T01:26:30.330Z,6.32
2022-10-20T01:31:44.758Z,3.92
2022-10-20T01:37:00.774Z,4.00
2022-10-20T01:42:09.757Z,9.77
2022-10-20T01:47:13.948Z,5.15
2022-10-20T01:52:16.066Z,4.90
2022-10-20T01:57:38.898Z,6.88
2022-10-20T02:02:59.073Z,6.57
2022-10-20T02:08:13.746Z,3.30
2022-10-20T02:13:28.067Z,3.28
2022-10-20T02:18:39.986Z,4.63
2022-10-20T02:23:46.324Z,6.25
2022-10-20T02:29:00.855Z,3.75
2022-10-20T02:34:03.552Z,5.20
2022-10-20T02:39:05.438Z,6.90
2022-10-20T02:44:07.253Z,7.38
2022-10-20T02:49:09.397Z,3.88
2022-10-20T02:54:13.590Z,4.55
2022-10-20T02:59:16.997Z,8.60
2022-10-20T03:04:27.053Z,5.68
2022-10-20T03:09:29.103Z,8.27
2022-10-20T03:14:31.321Z,8.52
2022-10-20T03:19:35.633Z,5.25
2022-10-20T03:24:37.433Z,6.00
2022-10-20T03:29:39.194Z,7.47
2022-10-20T03:34:40.895Z,4.60
2022-10-20T03:39:42.674Z,5.50
2022-10-20T03:44:45.268Z,6.63
2022-10-20T03:49:47.046Z,6.45
2022-10-20T03:54:48.930Z,7.18
2022-10-20T03:59:50.675Z,11.05
2022-10-20T04:04:52.676Z,5.55
2022-10-20T04:09:57.602Z,6.70
2022-10-20T04:14:59.419Z,7.50
2022-10-20T04:20:01.218Z,9.02
2022-10-20T04:25:04.409Z,7.50
2022-10-20T04:30:07.106Z,7.72
2022-10-20T04:35:09.441Z,7.03
2022-10-20T04:40:11.662Z,7.35
2022-10-20T04:45:13.467Z,9.45
2022-10-20T04:50:15.280Z,8.60
2022-10-20T04:55:17.298Z,9.13
2022-10-20T05:00:19.026Z,8.68
2022-10-20T05:05:21.129Z,7.93
2022-10-20T05:10:22.937Z,9.80
2022-10-20T05:15:24.687Z,9.90
2022-10-20T05:20:26.376Z,6.88
2022-10-20T05:25:36.626Z,5.80
2022-10-20T05:30:38.708Z,5.28
2022-10-20T05:35:40.421Z,5.60
2022-10-20T05:40:42.193Z,4.65
2022-10-20T05:45:43.876Z,5.13
2022-10-20T05:55:47.160Z,2.83
2022-10-20T06:00:52.857Z,6.50
2022-10-20T06:05:59.151Z,6.38
2022-10-20T06:11:06.461Z,7.10
2022-10-20T06:16:13.179Z,5.72
2022-10-20T06:21:28.629Z,5.78
2022-10-20T06:26:36.720Z,5.82
2022-10-20T06:31:41.050Z,9.43
2022-10-20T06:36:43.480Z,9.55
2022-10-20T06:41:50.813Z,6.82
2022-10-20T06:46:55.525Z,14.27
2022-10-20T06:51:57.742Z,9.88
2022-10-20T06:56:59.952Z,7.93
2022-10-20T07:02:02.181Z,9.27
2022-10-20T07:07:03.918Z,12.85
2022-10-20T07:12:05.788Z,9.82
2022-10-20T07:17:07.712Z,11.98
2022-10-20T07:22:09.436Z,14.38
2022-10-20T07:27:11.081Z,10.32
2022-10-20T07:32:12.891Z,17.45
2022-10-20T07:37:14.607Z,13.90
2022-10-20T07:42:16.309Z,13.05
2022-10-20T07:47:18.007Z,16.23
2022-10-20T07:52:19.887Z,19.25
2022-10-20T07:57:21.705Z,16.30
2022-10-20T08:02:23.713Z,17.52
2022-10-20T08:07:25.508Z,19.90
2022-10-20T08:12:27.321Z,18.52
2022-10-20T08:17:29.112Z,17.75
2022-10-20T08:22:30.927Z,18.00
2022-10-20T08:27:32.662Z,15.45
2022-10-20T08:32:34.549Z,17.02
2022-10-20T08:37:37.190Z,11.18
2022-10-20T08:42:42.243Z,12.05
2022-10-20T08:47:46.144Z,12.60
2022-10-20T08:52:54.760Z,13.05
2022-10-20T08:58:03.851Z,9.73
2022-10-20T09:08:39.503Z,11.82
2022-10-20T09:13:44.442Z,9.75
2022-10-20T09:18:50.965Z,7.63
2022-10-20T09:24:03.438Z,12.48
2022-10-20T09:29:15.336Z,9.32
2022-10-20T09:34:23.297Z,11.88
2022-10-20T09:39:36.241Z,7.35
2022-10-20T09:44:47.010Z,6.22
2022-10-20T09:49:59.927Z,7.70
2022-10-20T09:55:30.755Z,6.78
2022-10-20T10:00:50.546Z,8.70
2022-10-20T10:06:01.168Z,6.28
2022-10-20T10:11:16.426Z,9.98
2022-10-20T10:16:22.048Z,7.35
2022-10-20T10:21:24.407Z,7.75
2022-10-20T10:26:47.957Z,9.27
2022-10-20T10:32:26.060Z,5.93
2022-10-20T10:37:33.856Z,4.65
2022-10-20T10:43:01.941Z,9.75
2022-10-20T10:48:12.736Z,6.18
2022-10-20T10:53:59.815Z,7.63
2022-10-20T10:59:27.945Z,6.47
2022-10-20T11:04:43.506Z,10.05
2022-10-20T11:10:51.022Z,7.32
2022-10-20T11:16:28.805Z,7.55
2022-10-20T11:22:17.024Z,4.57
2022-10-20T11:27:25.862Z,8.52
2022-10-20T11:37:50.822Z,6.75
2022-10-20T11:43:19.580Z,12.25
2022-10-20T11:48:38.861Z,10.85
2022-10-20T11:54:11.594Z,7.75
2022-10-20T11:59:53.006Z,4.35
2022-10-20T12:05:20.204Z,7.95
2022-10-20T12:10:49.955Z,4.70
2022-10-20T12:21:17.156Z,5.25
2022-10-20T12:26:30.291Z,6.00
2022-10-20T12:32:09.404Z,6.07
2022-10-20T12:37:19.947Z,9.65
2022-10-20T12:42:38.214Z,6.63
2022-10-20T12:47:52.123Z,8.52
2022-10-20T12:52:54.314Z,8.40
2022-10-20T12:58:19.047Z,7.50
2022-10-20T13:03:49.616Z,7.88
2022-10-20T13:09:07.188Z,7.90
2022-10-20T13:14:12.202Z,12.13
2022-10-20T13:19:31.500Z,8.23
2022-10-20T13:24:44.087Z,7.90
2022-10-20T13:29:48.538Z,10.93
2022-10-20T13:35:51.508Z,5.70
2022-10-20T13:41:48.030Z,3.95
2022-10-20T13:47:36.257Z,6.15
2022-10-20T13:52:46.438Z,8.07
2022-10-20T14:09:30.325Z,7.47
2022-10-20T14:20:30.094Z,9.15
2022-10-20T14:25:32.991Z,9.18
2022-10-20T14:30:38.734Z,8.68
2022-10-20T14:35:53.362Z,14.55
2022-10-20T14:41:06.036Z,4.82
2022-10-20T14:46:29.558Z,10.27
2022-10-20T14:57:35.281Z,7.57
2022-10-20T15:02:58.385Z,7.20
2022-10-20T15:14:01.205Z,4.07
2022-10-20T15:19:36.343Z,5.75
2022-10-20T15:24:42.794Z,6.22
2022-10-20T15:29:55.386Z,6.55
2022-10-20T15:34:57.050Z,9.48
2022-10-20T15:39:59.759Z,4.95
2022-10-20T15:45:01.595Z,8.07
2022-10-20T15:50:06.350Z,7.38
2022-10-20T16:00:48.213Z,6.20
2022-10-20T16:05:54.519Z,8.20
2022-10-20T16:11:08.901Z,6.75
2022-10-20T16:28:12.489Z,5.20
2022-10-20T16:33:42.829Z,5.93
2022-10-20T16:57:40.509Z,8.52
2022-10-20T17:03:02.859Z,10.05
2022-10-20T17:08:21.000Z,13.10
2022-10-20T17:13:24.551Z,9.68
2022-10-20T17:24:15.535Z,9.98
2022-10-20T17:29:18.581Z,9.40
2022-10-20T17:34:24.054Z,6.28
2022-10-20T17:39:28.896Z,13.82
2022-10-20T17:44:30.621Z,9.50
2022-10-20T17:49:32.399Z,5.93
2022-10-20T17:54:43.289Z,7.93
2022-10-20T17:59:52.885Z,7.03
2022-10-20T18:05:01.046Z,13.27
2022-10-20T18:10:10.817Z,6.57
2022-10-20T18:27:05.119Z,10.07
2022-10-20T18:32:15.609Z,11.75
2022-10-20T18:37:20.379Z,10.52
2022-10-20T18:42:22.301Z,8.38
2022-10-20T18:59:00.715Z,8.32
2022-10-20T19:04:10.297Z,8.75
2022-10-20T19:09:23.599Z,6.68
2022-10-20T19:14:31.382Z,8.35
2022-10-20T19:19:38.268Z,6.03
2022-10-20T19:24:47.698Z,6.90
2022-10-20T19:30:07.761Z,12.10
2022-10-20T19:46:22.129Z,7.85
2022-10-20T19:57:15.610Z,7.22
2022-10-20T20:02:32.033Z,4.70
2022-10-20T20:07:38.815Z,5.35
2022-10-20T20:13:01.959Z,5.45
2022-10-20T20:24:27.012Z,8.35
2022-10-20T20:35:16.495Z,7.60
2022-10-20T20:41:22.463Z,5.65
2022-10-20T20:46:31.208Z,7.53
2022-10-20T20:51:34.069Z,7.28
2022-10-20T20:56:40.122Z,5.68
2022-10-20T21:07:08.082Z,8.27
2022-10-20T21:18:01.779Z,7.07
2022-10-20T21:23:12.539Z,8.75
2022-10-20T21:28:25.556Z,7.68
2022-10-20T21:55:37.735Z,10.40
2022-10-20T22:00:42.084Z,8.48
2022-10-20T22:05:44.010Z,12.60
2022-10-20T22:16:44.989Z,4.97
2022-10-20T22:27:44.277Z,6.32
2022-10-20T22:33:14.497Z,8.48
2022-10-20T22:38:16.449Z,7.65
2022-10-20T22:43:25.328Z,6.28
2022-10-20T23:00:22.272Z,5.90
2022-10-20T23:05:34.406Z,8.65
2022-10-20T23:16:13.494Z,5.90
2022-10-20T23:21:19.213Z,9.93
2022-10-20T23:26:35.756Z,4.60
2022-10-20T23:31:57.139Z,12.57
2022-10-20T23:37:18.952Z,7.13
2022-10-20T23:42:23.442Z,5.78
2022-10-20T23:47:28.338Z,6.55
